Palm Coast, Florida
Current Conditions -  °F | °C
As of 3:53 PM on Tuesday 27 Jan 2015 (Local Time) from KDAB Reporting Station
Few Clouds Few Clouds  
Wind Chill: 67°   Ceiling: Unl
Heat Index: 67°   Visibility: 10mi
Dew Point: 39°   Wind: 17mph
Humidity: 36%   Direction: 250°WSW
Pressure: 29.88"   Gusts: 30mph
Location:  29.57°N, 81.19°W
Report Text: KDAB 272053Z 25015G26KT 10SM FEW055 19/04 A2988 RMK AO2 PK WND 27032/2004 SLP116 T01940039 56026
Loading
Personal Weather Stations






























Interactive Weather Map New forecast layout! Learn more

10-Day Weather Forecast

Advertisements
Track Severe Weather on mobile